createdAt,value
2019-01-18T00:00:03.538Z,93.5
2019-01-18T00:01:02.900Z,94.5
2019-01-18T00:02:03.706Z,96.1
2019-01-18T00:03:03.030Z,93.3
2019-01-18T00:04:03.125Z,93.3
2019-01-18T00:05:03.354Z,94.2
2019-01-18T00:06:03.181Z,94.7
2019-01-18T00:07:03.845Z,92.8
2019-01-18T00:08:03.435Z,92.8
2019-01-18T00:09:02.738Z,93.5
2019-01-18T00:10:01.866Z,93.3
2019-01-18T00:11:02.930Z,93.3
2019-01-18T00:12:02.458Z,94
2019-01-18T00:13:03.593Z,92.8
2019-01-18T00:14:03.018Z,92.8
2019-01-18T00:15:03.196Z,93.5
2019-01-18T00:16:03.291Z,92.4
2019-01-18T00:17:03.135Z,91.7
2019-01-18T00:18:03.783Z,91.7
2019-01-18T00:19:03.566Z,89.8
2019-01-18T00:20:03.018Z,89.8
2019-01-18T00:21:02.719Z,86.8
2019-01-18T00:22:03.524Z,86.8
2019-01-18T00:23:02.949Z,86.8
2019-01-18T00:24:03.583Z,86.8
2019-01-18T00:25:03.506Z,85.6
2019-01-18T00:26:03.448Z,84.9
2019-01-18T00:27:03.453Z,84.4
2019-01-18T00:28:03.174Z,84.4
2019-01-18T00:29:02.761Z,83.5
2019-01-18T00:30:02.370Z,83.5
2019-01-18T00:31:03.774Z,84.4
2019-01-18T00:32:03.428Z,84.4
2019-01-18T00:33:03.250Z,84.9
2019-01-18T00:34:01.986Z,85.8
2019-01-18T00:35:02.574Z,86.5
2019-01-18T00:36:03.038Z,86.5
2019-01-18T00:37:03.172Z,86.3
2019-01-18T00:38:03.583Z,87.9
2019-01-18T00:39:03.713Z,87.9
2019-01-18T00:40:03.534Z,87.9
2019-01-18T00:41:03.476Z,87
2019-01-18T00:42:03.705Z,87
2019-01-18T00:43:03.387Z,90
2019-01-18T00:44:03.243Z,90
2019-01-18T00:45:03.081Z,92.6
2019-01-18T00:46:02.824Z,92.6
2019-01-18T00:47:03.682Z,93.5
2019-01-18T00:48:02.982Z,96.1
2019-01-18T00:49:03.670Z,94.9
2019-01-18T00:50:02.971Z,95.2
2019-01-18T00:51:02.838Z,95.6
2019-01-18T00:52:03.437Z,94.7
2019-01-18T00:53:03.079Z,96.3
2019-01-18T00:54:03.077Z,94.2
2019-01-18T00:55:03.464Z,94.7
2019-01-18T00:56:03.184Z,94.7
2019-01-18T00:57:02.888Z,93.5
2019-01-18T00:58:03.237Z,92.6
2019-01-18T00:59:03.662Z,92.1
2019-01-18T01:00:03.526Z,92.1
2019-01-18T01:01:03.486Z,93.3
2019-01-18T01:02:03.094Z,93.3
2019-01-18T01:03:02.792Z,93.8
2019-01-18T01:04:03.725Z,92.6
2019-01-18T01:05:03.241Z,95.2
2019-01-18T01:06:03.793Z,95.2
2019-01-18T01:07:02.818Z,94.7
2019-01-18T01:08:02.856Z,92.8
2019-01-18T01:09:03.601Z,94
2019-01-18T01:10:02.472Z,94.2
2019-01-18T01:11:03.031Z,94
2019-01-18T01:12:02.006Z,94.9
2019-01-18T01:13:02.836Z,93.1
2019-01-18T01:14:03.213Z,95.6
2019-01-18T01:15:03.739Z,95.2
2019-01-18T01:16:02.784Z,95.2
2019-01-18T01:17:03.570Z,95.9
2019-01-18T01:18:03.132Z,94.9
2019-01-18T01:19:03.513Z,95.9
2019-01-18T01:20:03.211Z,95.9
2019-01-18T01:21:02.985Z,94.9
2019-01-18T01:22:03.647Z,95.2
2019-01-18T01:23:03.669Z,94.5
2019-01-18T01:24:03.437Z,94.5
2019-01-18T01:25:03.180Z,94.2
2019-01-18T01:26:02.969Z,94.2
2019-01-18T01:27:03.563Z,95.4
2019-01-18T01:28:03.000Z,94.2
2019-01-18T01:29:02.988Z,91
2019-01-18T01:30:03.648Z,91
2019-01-18T01:31:03.364Z,90.3
2019-01-18T01:32:02.206Z,89.6
2019-01-18T01:33:02.574Z,88.9
2019-01-18T01:34:03.236Z,88.6
2019-01-18T01:35:03.779Z,87.2
2019-01-18T01:36:03.531Z,88.9
2019-01-18T01:37:02.959Z,85.8
2019-01-18T01:38:03.758Z,85.8
2019-01-18T01:39:02.981Z,87
2019-01-18T01:40:03.214Z,83.7
2019-01-18T01:41:03.533Z,84.2
2019-01-18T01:42:02.874Z,83.5
2019-01-18T01:43:03.544Z,83.3
2019-01-18T01:44:02.856Z,83.3
2019-01-18T01:45:04.723Z,83.3
2019-01-18T01:46:03.471Z,83.3
2019-01-18T01:47:03.411Z,77.7
2019-01-18T01:48:03.100Z,77.7
2019-01-18T01:49:02.968Z,79.1
2019-01-18T01:50:03.816Z,77.4
2019-01-18T01:51:03.230Z,77.4
2019-01-18T01:52:03.135Z,79.1
2019-01-18T01:53:02.164Z,79.3
2019-01-18T01:54:03.597Z,79.1
2019-01-18T01:55:03.502Z,78.6
2019-01-18T01:56:03.413Z,80.2
2019-01-18T01:57:03.152Z,80.7
2019-01-18T01:58:03.626Z,80.7
2019-01-18T01:59:03.233Z,81.6
2019-01-18T02:00:02.912Z,83.5
2019-01-18T02:01:03.500Z,83.5
2019-01-18T02:02:02.980Z,83.5
2019-01-18T02:03:03.419Z,84.4
2019-01-18T02:04:02.717Z,84.7
2019-01-18T02:05:03.613Z,84.7
2019-01-18T02:06:03.034Z,85.1
2019-01-18T02:07:03.220Z,87
2019-01-18T02:08:03.375Z,86.3
2019-01-18T02:09:02.735Z,87.9
2019-01-18T02:10:03.201Z,88.2
2019-01-18T02:11:03.344Z,88.6
2019-01-18T02:12:03.715Z,87.7
2019-01-18T02:13:03.177Z,88.6
2019-01-18T02:14:03.810Z,87.7
2019-01-18T02:15:03.715Z,88.9
2019-01-18T02:16:03.109Z,89.8
2019-01-18T02:17:03.799Z,90.5
2019-01-18T02:18:03.718Z,90.7
2019-01-18T02:19:03.501Z,90.7
2019-01-18T02:20:03.306Z,91.4
2019-01-18T02:21:03.153Z,91.2
2019-01-18T02:22:03.307Z,92.1
2019-01-18T02:23:03.060Z,92.1
2019-01-18T02:24:03.210Z,92.1
2019-01-18T02:25:02.863Z,92.1
2019-01-18T02:26:03.453Z,94.2
2019-01-18T02:27:03.165Z,95.4
2019-01-18T02:28:03.876Z,96.6
2019-01-18T02:29:02.111Z,96.1
2019-01-18T02:30:02.864Z,96.1
2019-01-18T02:31:02.811Z,97.7
2019-01-18T02:32:03.373Z,98.9
2019-01-18T02:33:03.289Z,98.7
2019-01-18T02:34:02.993Z,99.6
2019-01-18T02:35:03.492Z,98.2
2019-01-18T02:36:03.583Z,100.1
2019-01-18T02:37:03.500Z,99.6
2019-01-18T02:38:02.792Z,100.5
2019-01-18T02:39:03.308Z,100.8
2019-01-18T02:40:03.210Z,100.8
2019-01-18T02:41:03.136Z,101.7
2019-01-18T02:42:05.070Z,101.7
2019-01-18T02:43:04.236Z,101.5
2019-01-18T02:44:03.502Z,101.9
2019-01-18T02:45:03.287Z,100.8
2019-01-18T02:46:03.324Z,100.8
2019-01-18T02:47:03.247Z,101.7
2019-01-18T02:48:03.226Z,98.4
2019-01-18T02:49:03.130Z,100.1
2019-01-18T02:50:03.826Z,100.1
2019-01-18T02:51:02.306Z,98.2
2019-01-18T02:52:03.501Z,97.5
2019-01-18T02:53:03.088Z,97.3
2019-01-18T02:54:03.065Z,97.3
2019-01-18T02:55:03.053Z,96.3
2019-01-18T02:56:03.237Z,98
2019-01-18T02:57:02.869Z,98.2
2019-01-18T02:58:03.581Z,96.3
2019-01-18T02:59:03.369Z,94.7
2019-01-18T03:00:05.574Z,94.7
2019-01-18T03:01:03.791Z,92.1
2019-01-18T03:02:03.471Z,92.1
2019-01-18T03:03:03.078Z,91.9
2019-01-18T03:04:02.911Z,91.9
2019-01-18T03:05:02.934Z,91.9
2019-01-18T03:06:03.197Z,89.1
2019-01-18T03:07:02.962Z,90.7
2019-01-18T03:08:03.568Z,90.7
2019-01-18T03:09:03.300Z,88.2
2019-01-18T03:10:02.928Z,88.2
2019-01-18T03:11:03.602Z,89.3
2019-01-18T03:12:03.350Z,88.4
2019-01-18T03:13:03.168Z,86.1
2019-01-18T03:14:03.039Z,85.4
2019-01-18T03:15:02.727Z,84.4
2019-01-18T03:16:03.457Z,84.4
2019-01-18T03:17:02.322Z,83.5
2019-01-18T03:18:03.035Z,83.5
2019-01-18T03:19:02.919Z,84.2
2019-01-18T03:20:02.102Z,84.7
2019-01-18T03:21:02.513Z,87.5
2019-01-18T03:22:02.865Z,86.1
2019-01-18T03:23:03.876Z,87.5
2019-01-18T03:24:03.632Z,87.5
2019-01-18T03:25:03.448Z,87.2
2019-01-18T03:26:03.621Z,85.4
2019-01-18T03:27:03.147Z,86.5
2019-01-18T03:28:03.250Z,86.5
2019-01-18T03:29:03.178Z,87.5
2019-01-18T03:30:03.349Z,87
2019-01-18T03:31:02.902Z,87
2019-01-18T03:32:03.552Z,87.7
2019-01-18T03:33:03.256Z,86.3
2019-01-18T03:34:02.642Z,86.3
2019-01-18T03:35:03.090Z,88.4
2019-01-18T03:36:02.847Z,86.3
2019-01-18T03:37:03.167Z,87
2019-01-18T03:38:02.934Z,87
2019-01-18T03:39:03.931Z,87.7
2019-01-18T03:40:03.268Z,87
2019-01-18T03:41:03.293Z,85.6
2019-01-18T03:42:03.247Z,85.4
2019-01-18T03:43:03.052Z,86.5
2019-01-18T03:44:03.074Z,88.9
2019-01-18T03:45:03.688Z,88.9
2019-01-18T03:46:03.474Z,86.8
2019-01-18T03:47:03.388Z,88.9
2019-01-18T03:48:03.396Z,90.3
2019-01-18T03:49:02.845Z,90.3
2019-01-18T03:50:03.562Z,91.7
2019-01-18T03:51:03.848Z,91.7
2019-01-18T03:52:03.465Z,89.6
2019-01-18T03:53:03.579Z,89.8
2019-01-18T03:54:03.261Z,88.4
2019-01-18T03:55:03.922Z,88.4
2019-01-18T03:56:03.087Z,87.9
2019-01-18T03:57:03.685Z,87
2019-01-18T03:58:03.263Z,87
2019-01-18T03:59:03.118Z,86.8
2019-01-18T04:00:03.139Z,86.5
2019-01-18T04:01:03.066Z,86.5
2019-01-18T04:02:02.017Z,88.4
2019-01-18T04:03:03.553Z,88.4
2019-01-18T04:04:02.375Z,90.3
2019-01-18T04:05:03.174Z,89.6
2019-01-18T04:06:03.740Z,91.4
2019-01-18T04:07:02.433Z,92.1
2019-01-18T04:08:03.669Z,92.1
2019-01-18T04:09:03.807Z,91
2019-01-18T04:10:03.536Z,91.9
2019-01-18T04:11:02.966Z,93.8
2019-01-18T04:12:03.653Z,94.2
2019-01-18T04:13:03.193Z,94.2
2019-01-18T04:14:03.755Z,95.9
2019-01-18T04:15:03.036Z,97
2019-01-18T04:16:02.737Z,95.4
2019-01-18T04:17:03.368Z,96.1
2019-01-18T04:18:03.017Z,96.1
2019-01-18T04:19:03.359Z,94.9
2019-01-18T04:20:03.015Z,94.9
2019-01-18T04:21:03.015Z,96.6
2019-01-18T04:22:02.905Z,91.4
2019-01-18T04:23:03.191Z,93.8
2019-01-18T04:24:03.685Z,93.8
2019-01-18T04:25:03.660Z,95.4
2019-01-18T04:26:03.371Z,95.4
2019-01-18T04:27:03.290Z,92.1
2019-01-18T04:28:03.046Z,90
2019-01-18T04:29:03.437Z,90.5
2019-01-18T04:30:03.602Z,90.5
2019-01-18T04:31:02.384Z,91.4
2019-01-18T04:32:02.232Z,93.1
2019-01-18T04:33:03.460Z,92.1
2019-01-18T04:34:02.096Z,94.2
2019-01-18T04:35:03.736Z,93.5
2019-01-18T04:36:03.303Z,93.3
2019-01-18T04:37:02.500Z,94
2019-01-18T04:38:02.898Z,93.1
2019-01-18T04:39:03.182Z,95.4
2019-01-18T04:40:03.035Z,93.8
2019-01-18T04:41:03.733Z,92.6
2019-01-18T04:42:03.347Z,92.8
2019-01-18T04:43:03.402Z,92.8
2019-01-18T04:44:03.344Z,93.3
2019-01-18T04:45:02.744Z,90.7
2019-01-18T04:46:03.113Z,91.7
2019-01-18T04:47:03.063Z,89.3
2019-01-18T04:48:03.001Z,89.3
2019-01-18T04:49:03.368Z,90.7
2019-01-18T04:50:03.125Z,90.7
2019-01-18T04:51:02.908Z,91.2
2019-01-18T04:52:03.617Z,94.7
2019-01-18T04:53:03.696Z,95.6
2019-01-18T04:54:02.943Z,95.6
2019-01-18T04:55:03.696Z,97.5
2019-01-18T04:56:02.328Z,98.2
2019-01-18T04:57:03.679Z,98.2
2019-01-18T04:58:03.669Z,99.4
2019-01-18T04:59:03.295Z,101
2019-01-18T05:00:03.560Z,99.8
2019-01-18T05:01:03.473Z,100.1
2019-01-18T05:02:03.770Z,101.2
2019-01-18T05:03:03.117Z,99.4
2019-01-18T05:04:03.032Z,97
2019-01-18T05:05:03.281Z,97.5
2019-01-18T05:06:03.297Z,96.6
2019-01-18T05:07:02.993Z,95.6
2019-01-18T05:08:03.319Z,95.6
2019-01-18T05:09:03.330Z,92.6
2019-01-18T05:10:03.859Z,94.7
2019-01-18T05:11:03.430Z,94.5
2019-01-18T05:12:03.482Z,94.5
2019-01-18T05:13:03.097Z,92.6
2019-01-18T05:14:03.121Z,92.6
2019-01-18T05:15:03.828Z,94.2
2019-01-18T05:16:03.549Z,94.2
2019-01-18T05:17:02.835Z,91.4
2019-01-18T05:18:02.927Z,91.4
2019-01-18T05:19:03.663Z,93.5
2019-01-18T05:20:03.317Z,94
2019-01-18T05:21:03.538Z,92.8
2019-01-18T05:22:03.060Z,92.8
2019-01-18T05:23:02.923Z,92.4
2019-01-18T05:24:02.801Z,94.9
2019-01-18T05:25:04.402Z,95.6
2019-01-18T05:26:02.735Z,95.6
2019-01-18T05:27:02.942Z,97
2019-01-18T05:28:03.143Z,97.7
2019-01-18T05:29:03.287Z,99.1
2019-01-18T05:30:03.452Z,96.1
2019-01-18T05:31:02.155Z,95.6
2019-01-18T05:32:01.819Z,95.4
2019-01-18T05:33:03.624Z,93.8
2019-01-18T05:34:03.631Z,95.6
2019-01-18T05:35:03.900Z,94.5
2019-01-18T05:36:03.809Z,92.8
2019-01-18T05:37:03.392Z,93.1
2019-01-18T05:38:03.244Z,92.1
2019-01-18T05:39:03.265Z,94.2
2019-01-18T05:40:03.215Z,94.2
2019-01-18T05:41:03.048Z,92.4
2019-01-18T05:42:03.452Z,93.3
2019-01-18T05:43:03.155Z,93.3
2019-01-18T05:44:03.780Z,93.5
2019-01-18T05:45:03.028Z,94
2019-01-18T05:46:03.166Z,93.8
2019-01-18T05:47:02.783Z,93.8
2019-01-18T05:48:02.994Z,94
2019-01-18T05:49:03.522Z,95.2
2019-01-18T05:50:03.034Z,95.2
2019-01-18T05:51:02.792Z,92.6
2019-01-18T05:52:02.823Z,93.8
2019-01-18T05:53:03.789Z,93.8
2019-01-18T05:54:03.721Z,91.9
2019-01-18T05:55:03.611Z,91.9
2019-01-18T05:56:03.272Z,89.3
2019-01-18T05:57:03.188Z,90
2019-01-18T05:58:03.200Z,87.7
2019-01-18T05:59:02.951Z,87.7
2019-01-18T06:00:03.687Z,87.9
2019-01-18T06:01:03.049Z,87.9
2019-01-18T06:02:02.957Z,87.9
2019-01-18T06:03:03.099Z,87.5
2019-01-18T06:04:03.064Z,87.7
2019-01-18T06:05:02.450Z,87.7
2019-01-18T06:06:03.070Z,87.2
2019-01-18T06:07:02.626Z,87
2019-01-18T06:08:03.570Z,88.2
2019-01-18T06:09:02.926Z,86.3
2019-01-18T06:10:03.547Z,88.6
2019-01-18T06:11:03.033Z,87.9
2019-01-18T06:12:03.152Z,89.6
2019-01-18T06:13:03.790Z,89.1
2019-01-18T06:14:03.301Z,89.1
2019-01-18T06:15:03.624Z,90.7
2019-01-18T06:16:03.499Z,90.7
2019-01-18T06:17:02.923Z,90.7
2019-01-18T06:18:03.359Z,87.9
2019-01-18T06:19:03.591Z,91.2
2019-01-18T06:20:03.794Z,91
2019-01-18T06:21:02.797Z,91
2019-01-18T06:22:03.082Z,87.7
2019-01-18T06:23:03.178Z,85.1
2019-01-18T06:24:03.034Z,85.1
2019-01-18T06:25:03.190Z,84.2
2019-01-18T06:26:03.174Z,84.2
2019-01-18T06:27:03.147Z,84
2019-01-18T06:28:03.582Z,84
2019-01-18T06:29:02.876Z,86.1
2019-01-18T06:30:03.423Z,86.1
2019-01-18T06:31:03.118Z,86.1
2019-01-18T06:32:03.616Z,86.1
2019-01-18T06:33:02.798Z,82.1
2019-01-18T06:34:03.441Z,84.2
2019-01-18T06:35:03.115Z,84.9
2019-01-18T06:36:03.239Z,85.1
2019-01-18T06:37:03.614Z,84.9
2019-01-18T06:38:03.443Z,84.9
2019-01-18T06:39:03.201Z,84.2
2019-01-18T06:40:02.898Z,84.7
2019-01-18T06:41:02.972Z,82.8
2019-01-18T06:42:03.454Z,82.8
2019-01-18T06:43:02.876Z,83.5
2019-01-18T06:44:03.267Z,83.5
2019-01-18T06:45:03.126Z,83
2019-01-18T06:46:03.865Z,84.2
2019-01-18T06:47:03.471Z,84.4
2019-01-18T06:48:03.222Z,84.4
2019-01-18T06:49:03.795Z,84
2019-01-18T06:50:03.314Z,84.2
2019-01-18T06:51:02.970Z,83
2019-01-18T06:52:02.851Z,82.6
2019-01-18T06:53:02.976Z,84.4
2019-01-18T06:54:02.315Z,83
2019-01-18T06:55:03.488Z,86.1
2019-01-18T06:56:02.930Z,86.5
2019-01-18T06:57:03.015Z,86.8
2019-01-18T06:58:02.842Z,88.6
2019-01-18T06:59:02.001Z,89.3
2019-01-18T07:00:03.219Z,88.6
2019-01-18T07:01:08.897Z,90
2019-01-18T07:02:03.551Z,91.4
2019-01-18T07:03:03.187Z,89.1
2019-01-18T07:04:02.928Z,91.7
2019-01-18T07:05:03.706Z,92.6
2019-01-18T07:06:03.253Z,92.6
2019-01-18T07:07:03.601Z,93.3
2019-01-18T07:08:03.199Z,93.3
2019-01-18T07:09:03.173Z,92.6
2019-01-18T07:10:03.782Z,92.6
2019-01-18T07:11:03.509Z,92.8
2019-01-18T07:12:03.134Z,92.8
2019-01-18T07:13:02.846Z,91.7
2019-01-18T07:14:03.211Z,91
2019-01-18T07:15:03.152Z,89.8
2019-01-18T07:16:03.166Z,90
2019-01-18T07:17:02.714Z,91
2019-01-18T07:18:03.333Z,89.8
2019-01-18T07:19:02.402Z,91.7
2019-01-18T07:20:03.450Z,91.4
2019-01-18T07:21:03.095Z,92.6
2019-01-18T07:22:03.618Z,93.3
2019-01-18T07:23:03.115Z,93.3
2019-01-18T07:24:03.246Z,94.2
2019-01-18T07:25:02.855Z,94.2
2019-01-18T07:26:03.171Z,94.7
2019-01-18T07:27:03.401Z,94.7
2019-01-18T07:28:02.927Z,92.8
2019-01-18T07:29:03.672Z,93.5
2019-01-18T07:30:03.182Z,91.7
2019-01-18T07:31:03.197Z,91.7
2019-01-18T07:32:03.689Z,94.7
2019-01-18T07:33:03.691Z,93.5
2019-01-18T07:34:03.328Z,94
2019-01-18T07:35:03.259Z,94
2019-01-18T07:36:03.258Z,94.2
2019-01-18T07:37:02.836Z,94.2
2019-01-18T07:38:02.939Z,92.4
2019-01-18T07:39:03.575Z,92.8
2019-01-18T07:40:03.237Z,94.9
2019-01-18T07:41:02.781Z,94.9
2019-01-18T07:42:03.251Z,95.2
2019-01-18T07:43:02.047Z,95.2
2019-01-18T07:44:02.034Z,94.9
2019-01-18T07:45:03.103Z,94.2
2019-01-18T07:46:03.086Z,95.2
2019-01-18T07:47:03.530Z,95.4
2019-01-18T07:48:04.068Z,97.3
2019-01-18T07:49:02.162Z,94.2
2019-01-18T07:50:03.802Z,96.1
2019-01-18T07:51:02.942Z,96.1
2019-01-18T07:52:03.679Z,96.3
2019-01-18T07:53:03.245Z,96.8
2019-01-18T07:54:03.470Z,94
2019-01-18T07:55:03.597Z,94
2019-01-18T07:56:03.218Z,92.8
2019-01-18T07:57:03.794Z,92.8
2019-01-18T07:58:03.316Z,90
2019-01-18T07:59:02.926Z,90.7
2019-01-18T08:00:03.247Z,88.9
2019-01-18T08:01:02.976Z,88.9
2019-01-18T08:02:03.358Z,89.3
2019-01-18T08:03:03.187Z,89.3
2019-01-18T08:04:03.341Z,86.3
2019-01-18T08:05:03.035Z,86.5
2019-01-18T08:06:03.373Z,85.1
2019-01-18T08:07:03.486Z,87.2
2019-01-18T08:08:03.421Z,86.1
2019-01-18T08:09:03.719Z,86.1
2019-01-18T08:10:03.550Z,86.3
2019-01-18T08:11:03.448Z,85.4
2019-01-18T08:12:03.324Z,85.4
2019-01-18T08:13:03.710Z,86.5
2019-01-18T08:14:03.416Z,89.1
2019-01-18T08:15:03.174Z,89.1
2019-01-18T08:16:03.223Z,88.9
2019-01-18T08:17:02.973Z,88.9
2019-01-18T08:18:03.284Z,88.2
2019-01-18T08:19:02.966Z,88.2
2019-01-18T08:20:03.381Z,87.9
2019-01-18T08:21:03.150Z,87.9
2019-01-18T08:22:02.887Z,88.4
2019-01-18T08:23:03.656Z,87.9
2019-01-18T08:24:03.242Z,87.2
2019-01-18T08:25:03.940Z,87.2
2019-01-18T08:26:03.563Z,87.9
2019-01-18T08:27:03.021Z,88.9
2019-01-18T08:28:03.524Z,88.9
2019-01-18T08:29:03.464Z,88.9
2019-01-18T08:30:03.646Z,87.9
2019-01-18T08:31:02.929Z,87
2019-01-18T08:32:01.810Z,86.5
2019-01-18T08:33:03.463Z,86.5
2019-01-18T08:34:02.932Z,86.3
2019-01-18T08:35:02.487Z,87.2
2019-01-18T08:36:03.671Z,87.5
2019-01-18T08:37:03.520Z,87.5
2019-01-18T08:38:03.427Z,87
2019-01-18T08:39:03.093Z,87
2019-01-18T08:40:03.219Z,86.3
2019-01-18T08:41:02.858Z,86.3
2019-01-18T08:42:03.523Z,84.2
2019-01-18T08:43:03.731Z,84.2
2019-01-18T08:44:03.366Z,82.3
2019-01-18T08:45:03.250Z,81.9
2019-01-18T08:46:03.006Z,81.9
2019-01-18T08:47:02.931Z,81.6
2019-01-18T08:48:02.741Z,81.4
2019-01-18T08:49:03.268Z,79.8
2019-01-18T08:50:03.512Z,80.5
2019-01-18T08:51:04.079Z,80.2
2019-01-18T08:52:03.463Z,80.2
2019-01-18T08:53:03.032Z,80.7
2019-01-18T08:54:02.947Z,79.8
2019-01-18T08:55:02.949Z,80.2
2019-01-18T08:56:03.266Z,78.8
2019-01-18T08:57:02.861Z,78.8
2019-01-18T08:58:03.017Z,79.3
2019-01-18T08:59:02.891Z,80.2
2019-01-18T09:00:03.118Z,81.2
2019-01-18T09:01:02.905Z,81.2
2019-01-18T09:02:03.309Z,80.9
2019-01-18T09:03:03.628Z,82.6
2019-01-18T09:04:02.311Z,81.6
2019-01-18T09:05:02.687Z,82.1
2019-01-18T09:06:03.781Z,82.6
2019-01-18T09:07:03.437Z,82.3
2019-01-18T09:08:03.482Z,82.3
2019-01-18T09:09:03.170Z,82.3
2019-01-18T09:10:03.408Z,82.3
2019-01-18T09:11:03.211Z,83
2019-01-18T09:12:03.324Z,82.1
2019-01-18T09:13:02.917Z,84.4
2019-01-18T09:14:02.985Z,84.2
2019-01-18T09:15:02.847Z,84.2
2019-01-18T09:16:03.743Z,83.5
2019-01-18T09:17:03.395Z,83.5
2019-01-18T09:18:02.864Z,81.4
2019-01-18T09:19:03.410Z,83
2019-01-18T09:20:03.762Z,83.5
2019-01-18T09:21:03.586Z,83.5
2019-01-18T09:22:03.672Z,84.4
2019-01-18T09:23:03.126Z,84.7
2019-01-18T09:24:03.165Z,85.1
2019-01-18T09:25:03.007Z,84.7
2019-01-18T09:26:03.284Z,82.6
2019-01-18T09:27:02.945Z,84.9
2019-01-18T09:28:03.541Z,84.9
2019-01-18T09:29:03.733Z,84
2019-01-18T09:30:03.048Z,83.7
2019-01-18T09:31:03.752Z,83.7
2019-01-18T09:32:03.452Z,84
2019-01-18T09:33:03.209Z,84.4
2019-01-18T09:34:03.460Z,83.7
2019-01-18T09:35:03.424Z,83.7
2019-01-18T09:36:03.454Z,82.3
2019-01-18T09:37:03.309Z,84.7
2019-01-18T09:38:02.725Z,83.7
2019-01-18T09:39:03.172Z,85.1
2019-01-18T09:40:03.682Z,83.5
2019-01-18T09:41:03.326Z,83.5
2019-01-18T09:42:03.720Z,84.9
2019-01-18T09:43:03.545Z,84.9
2019-01-18T09:44:03.063Z,84.7
2019-01-18T09:45:03.174Z,84.7
2019-01-18T09:46:02.942Z,86.8
2019-01-18T09:47:03.460Z,86.8
2019-01-18T09:48:03.447Z,89.6
2019-01-18T09:49:03.423Z,89.6
2019-01-18T09:50:03.102Z,88.6
2019-01-18T09:51:02.874Z,88.6
2019-01-18T09:52:03.091Z,89.6
2019-01-18T09:53:03.620Z,87.9
2019-01-18T09:54:02.833Z,90.3
2019-01-18T09:55:03.752Z,90.3
2019-01-18T09:56:03.036Z,91.7
2019-01-18T09:57:01.919Z,92.8
2019-01-18T09:58:03.634Z,93.1
2019-01-18T09:59:03.558Z,93.1
2019-01-18T10:00:02.986Z,94
2019-01-18T10:01:03.356Z,91.2
2019-01-18T10:02:03.054Z,91.2
2019-01-18T10:03:02.811Z,93.3
2019-01-18T10:04:03.325Z,92.8
2019-01-18T10:05:03.206Z,92.8
2019-01-18T10:06:02.940Z,92.4
2019-01-18T10:07:03.615Z,93.1
2019-01-18T10:08:03.384Z,92.4
2019-01-18T10:09:02.985Z,92.6
2019-01-18T10:10:03.791Z,92.4
2019-01-18T10:11:03.305Z,92.4
2019-01-18T10:12:03.326Z,91.7
2019-01-18T10:13:03.402Z,91.7
2019-01-18T10:14:03.068Z,89.6
2019-01-18T10:15:03.815Z,89.1
2019-01-18T10:16:03.483Z,89.1
2019-01-18T10:17:03.719Z,87.7
2019-01-18T10:18:03.277Z,87.9
2019-01-18T10:19:02.999Z,87.9
2019-01-18T10:20:02.125Z,86.5
2019-01-18T10:21:03.017Z,87.2
2019-01-18T10:22:03.640Z,87.2
2019-01-18T10:23:03.239Z,85.8
2019-01-18T10:24:02.818Z,89.1
2019-01-18T10:25:03.136Z,87.5
2019-01-18T10:26:02.956Z,87.5
2019-01-18T10:27:03.681Z,86.3
2019-01-18T10:28:03.187Z,87.5
2019-01-18T10:29:03.177Z,87.9
2019-01-18T10:30:03.043Z,87.9
2019-01-18T10:31:03.466Z,87.2
2019-01-18T10:32:02.922Z,89.1
2019-01-18T10:33:03.504Z,88.9
2019-01-18T10:34:03.509Z,89.6
2019-01-18T10:35:03.126Z,89.1
2019-01-18T10:36:02.925Z,89.1
2019-01-18T10:37:03.774Z,87
2019-01-18T10:38:03.393Z,88.4
2019-01-18T10:39:03.865Z,88.2
2019-01-18T10:40:03.453Z,88.2
2019-01-18T10:41:02.787Z,87.7
2019-01-18T10:42:02.869Z,92.6
2019-01-18T10:43:03.079Z,91.7
2019-01-18T10:44:06.465Z,91.7
2019-01-18T10:45:03.553Z,92.4
2019-01-18T10:46:03.709Z,92.8
2019-01-18T10:47:03.310Z,92.8
2019-01-18T10:48:03.997Z,92.8
2019-01-18T10:49:03.450Z,92.8
2019-01-18T10:50:03.800Z,94.9
2019-01-18T10:51:03.532Z,94.9
2019-01-18T10:52:02.966Z,92.4
2019-01-18T10:53:02.927Z,92.4
2019-01-18T10:54:03.652Z,90
2019-01-18T10:55:03.656Z,90.3
2019-01-18T10:56:02.647Z,87.7
2019-01-18T10:57:03.723Z,88.9
2019-01-18T10:58:02.313Z,87.5
2019-01-18T10:59:02.548Z,89.3
2019-01-18T11:00:03.502Z,87.7
2019-01-18T11:01:03.346Z,87.7
2019-01-18T11:02:07.654Z,89.1
2019-01-18T11:03:03.439Z,88.2
2019-01-18T11:04:02.876Z,89.1
2019-01-18T11:05:02.821Z,89.1
2019-01-18T11:06:02.874Z,89.8
2019-01-18T11:07:03.052Z,90.7
2019-01-18T11:08:03.016Z,89.6
2019-01-18T11:09:03.723Z,89.6
2019-01-18T11:10:03.188Z,90.7
2019-01-18T11:11:03.140Z,90.7
2019-01-18T11:12:02.823Z,92.1
2019-01-18T11:13:03.506Z,92.1
2019-01-18T11:14:02.925Z,94
2019-01-18T11:15:03.590Z,94
2019-01-18T11:16:02.969Z,94
2019-01-18T11:17:03.877Z,94
2019-01-18T11:18:03.687Z,92.1
2019-01-18T11:19:03.359Z,93.5
2019-01-18T11:20:03.388Z,91.9
2019-01-18T11:21:02.990Z,91.9
2019-01-18T11:22:03.481Z,92.6
2019-01-18T11:23:02.426Z,92.4
2019-01-18T11:24:03.042Z,93.8
2019-01-18T11:25:03.042Z,93.8
2019-01-18T11:26:03.511Z,93.1
2019-01-18T11:27:03.428Z,92.4
2019-01-18T11:28:03.162Z,92.1
2019-01-18T11:29:03.747Z,92.1
2019-01-18T11:30:03.061Z,91.4
2019-01-18T11:31:03.015Z,90.7
2019-01-18T11:32:03.334Z,90.7
2019-01-18T11:33:03.631Z,90
2019-01-18T11:34:03.006Z,89.1
2019-01-18T11:35:03.865Z,89.1
2019-01-18T11:36:03.597Z,89.1
2019-01-18T11:37:03.786Z,88.9
2019-01-18T11:38:02.930Z,89.3
2019-01-18T11:39:03.526Z,89.3
2019-01-18T11:40:03.501Z,89.6
2019-01-18T11:41:03.249Z,89.1
2019-01-18T11:42:05.634Z,86.1
2019-01-18T11:43:03.045Z,82.8
2019-01-18T11:44:03.524Z,81.9
2019-01-18T11:45:02.219Z,84.2
2019-01-18T11:46:03.385Z,82.6
2019-01-18T11:47:02.942Z,81.2
2019-01-18T11:48:03.574Z,79.8
2019-01-18T11:49:03.201Z,79.8
2019-01-18T11:50:03.566Z,80.9
2019-01-18T11:51:03.670Z,80.7
2019-01-18T11:52:02.918Z,80.5
2019-01-18T11:53:03.016Z,80.5
2019-01-18T11:54:03.642Z,81.2
2019-01-18T11:55:03.176Z,82.6
2019-01-18T11:56:02.955Z,80.9
2019-01-18T11:57:03.651Z,80.9
2019-01-18T11:58:02.859Z,80.9
2019-01-18T11:59:03.051Z,80.9
2019-01-18T12:00:03.241Z,81.2
2019-01-18T12:01:03.472Z,79.5
2019-01-18T12:02:02.882Z,81.2
2019-01-18T12:03:03.692Z,81.2
2019-01-18T12:04:03.175Z,79.3
2019-01-18T12:05:02.857Z,79.5
2019-01-18T12:06:03.054Z,81.4
2019-01-18T12:07:03.188Z,81.4
2019-01-18T12:08:02.882Z,81.6
2019-01-18T12:09:03.008Z,79.8
2019-01-18T12:10:03.652Z,77.2
2019-01-18T12:11:03.575Z,77.2
2019-01-18T12:12:02.892Z,75.1
2019-01-18T12:13:02.892Z,75.8
2019-01-18T12:14:03.410Z,76.7
2019-01-18T12:15:02.040Z,76.7
2019-01-18T12:16:04.240Z,79.1
2019-01-18T12:17:03.473Z,79.1
2019-01-18T12:18:03.554Z,76.5
2019-01-18T12:19:02.842Z,80
2019-01-18T12:20:02.953Z,77.9
2019-01-18T12:21:02.945Z,77.9
2019-01-18T12:22:02.934Z,76.7
2019-01-18T12:23:02.912Z,75.8
2019-01-18T12:24:03.713Z,76.3
2019-01-18T12:25:03.523Z,76.3
2019-01-18T12:26:03.755Z,77.2
2019-01-18T12:27:03.629Z,77.2
2019-01-18T12:28:03.089Z,78.1
2019-01-18T12:29:03.379Z,79.8
2019-01-18T12:30:03.885Z,81.6
2019-01-18T12:31:03.087Z,81.6
2019-01-18T12:32:03.439Z,82.6
2019-01-18T12:33:02.991Z,82.6
2019-01-18T12:34:03.037Z,85.1
2019-01-18T12:35:03.426Z,85.1
2019-01-18T12:36:03.503Z,85.1
2019-01-18T12:37:03.765Z,84.7
2019-01-18T12:38:03.486Z,84.2
2019-01-18T12:39:03.720Z,84.4
2019-01-18T12:40:03.330Z,85.4
2019-01-18T12:41:03.043Z,86.3
2019-01-18T12:42:02.287Z,86.1
2019-01-18T12:43:02.323Z,87.5
2019-01-18T12:44:02.738Z,87.5
2019-01-18T12:45:02.499Z,87.7
2019-01-18T12:46:03.556Z,86.5
2019-01-18T12:47:02.443Z,88.2
2019-01-18T12:48:03.827Z,87.7
2019-01-18T12:49:03.246Z,87.5
2019-01-18T12:50:02.786Z,87.5
2019-01-18T12:51:03.703Z,87
2019-01-18T12:52:03.536Z,84.9
2019-01-18T12:53:02.818Z,84.9
2019-01-18T12:54:03.399Z,85.8
2019-01-18T12:55:03.402Z,85.8
2019-01-18T12:56:02.991Z,85.6
2019-01-18T12:57:03.744Z,85.6
2019-01-18T12:58:03.370Z,87
2019-01-18T12:59:03.303Z,87
2019-01-18T13:00:02.973Z,87.9
2019-01-18T13:01:03.725Z,87.9
2019-01-18T13:02:03.110Z,86.5
2019-01-18T13:03:02.943Z,86.5
2019-01-18T13:04:03.155Z,86.3
2019-01-18T13:05:04.046Z,86.3
2019-01-18T13:06:03.287Z,86.1
2019-01-18T13:07:02.203Z,86.8
2019-01-18T13:08:02.887Z,87.5
2019-01-18T13:09:03.391Z,87.5
2019-01-18T13:10:01.921Z,88.4
2019-01-18T13:11:03.720Z,88.4
2019-01-18T13:12:03.217Z,88.6
2019-01-18T13:13:03.548Z,87.7
2019-01-18T13:14:03.798Z,87.9
2019-01-18T13:15:03.361Z,87.9
2019-01-18T13:16:02.928Z,86.5
2019-01-18T13:17:03.474Z,86.8
2019-01-18T13:18:03.134Z,84.7
2019-01-18T13:19:03.894Z,84.7
2019-01-18T13:20:03.152Z,84.7
2019-01-18T13:21:04.294Z,84.4
2019-01-18T13:22:03.555Z,86.1